Time;durP1;ratioP1;P1;durP2;ratioP2;P2;SDS_P1;SDS_P2;PMS_P1;PMS_P2;Temp;Humidity;BMP_temperature;BMP_pressure;BME280_temperature;BME280_humidity;BME280_pressure;Samples;Min_cycle;Max_cycle;Signal;HPM_P1;HPM_P2
2022/11/13 00:02:39;;;;;;;50.75;29.10;;;5.50;99.90;;;;;;4913480;29;20048;-68
2022/11/13 00:05:27;;;;;;;48.08;28.48;;;5.50;99.90;;;;;;4908189;29;20059;-66
2022/11/13 00:08:13;;;;;;;56.03;30.45;;;5.50;99.90;;;;;;4907732;29;20055;-67
2022/11/13 00:11:04;;;;;;;68.47;32.63;;;5.50;99.90;;;;;;4913900;29;20044;-67
2022/11/13 00:13:50;;;;;;;71.80;33.22;;;5.50;99.90;;;;;;4913937;29;20503;-67
2022/11/13 00:16:36;;;;;;;69.43;32.97;;;5.40;99.90;;;;;;4913913;29;20083;-67
2022/11/13 00:19:22;;;;;;;53.97;30.80;;;5.50;99.90;;;;;;4913880;29;20050;-67
2022/11/13 00:22:08;;;;;;;68.68;30.52;;;5.50;99.90;;;;;;4911184;29;20534;-67
2022/11/13 00:24:53;;;;;;;57.90;30.10;;;5.50;99.90;;;;;;4907457;29;20040;-67
2022/11/13 00:27:39;;;;;;;48.17;27.63;;;5.50;99.90;;;;;;4912605;29;20632;-66
2022/11/13 00:30:25;;;;;;;49.38;28.27;;;5.50;99.90;;;;;;4913656;29;20430;-68
2022/11/13 00:33:11;;;;;;;52.13;25.70;;;5.50;99.90;;;;;;4913562;29;20091;-68
2022/11/13 00:36:10;;;;;;;45.95;23.83;;;5.50;99.90;;;;;;4912017;29;20066;-67
2022/11/13 00:38:57;;;;;;;41.05;22.90;;;5.50;99.90;;;;;;4902395;29;20059;-68
2022/11/13 00:41:43;;;;;;;36.70;22.40;;;5.50;99.90;;;;;;4913414;29;20043;-67
2022/11/13 00:44:29;;;;;;;58.42;22.33;;;5.50;99.90;;;;;;4909269;29;20104;-66
2022/11/13 00:47:15;;;;;;;36.40;22.90;;;5.40;99.90;;;;;;4899134;29;20515;-67
2022/11/13 00:50:01;;;;;;;45.75;24.60;;;5.40;99.90;;;;;;4913382;29;20044;-68
2022/11/13 00:52:46;;;;;;;70.47;25.73;;;5.50;99.90;;;;;;4913565;29;20511;-68
2022/11/13 00:55:33;;;;;;;49.92;25.92;;;5.50;99.90;;;;;;4912920;29;20549;-67
2022/11/13 00:58:19;;;;;;;50.42;26.00;;;5.40;99.90;;;;;;4913480;29;20051;-68
2022/11/13 01:01:09;;;;;;;46.33;25.60;;;5.40;99.90;;;;;;4901972;29;20071;-67
2022/11/13 01:03:55;;;;;;;66.45;27.08;;;5.30;99.90;;;;;;4909327;29;20417;-66
2022/11/13 01:06:43;;;;;;;50.88;24.95;;;5.30;99.90;;;;;;4903411;29;20446;-67
2022/11/13 01:09:29;;;;;;;54.83;26.55;;;5.30;99.90;;;;;;4912426;29;20119;-67
2022/11/13 01:12:14;;;;;;;37.10;23.45;;;5.30;99.90;;;;;;4911220;29;20059;-68
2022/11/13 01:15:00;;;;;;;41.92;22.35;;;5.20;99.90;;;;;;4912342;29;20086;-68
2022/11/13 01:17:46;;;;;;;47.63;23.40;;;5.20;99.90;;;;;;4907336;29;20598;-67
2022/11/13 01:20:32;;;;;;;51.65;25.05;;;5.20;99.90;;;;;;4911350;29;20486;-67
2022/11/13 01:23:18;;;;;;;43.22;23.83;;;5.20;99.90;;;;;;4912092;29;20055;-67
2022/11/13 01:26:26;;;;;;;76.72;25.30;;;5.20;99.90;;;;;;4912393;29;20040;-67
2022/11/13 01:29:12;;;;;;;47.35;23.45;;;5.10;99.90;;;;;;4909255;29;20047;-67
2022/11/13 01:31:57;;;;;;;79.00;26.48;;;5.10;99.90;;;;;;4912465;29;20067;-69
2022/11/13 01:34:44;;;;;;;53.42;24.73;;;5.10;99.90;;;;;;4912181;29;20050;-67
2022/11/13 01:37:29;;;;;;;85.82;25.77;;;5.00;99.90;;;;;;4913406;29;20048;-66
2022/11/13 01:40:15;;;;;;;50.08;20.65;;;5.00;99.90;;;;;;4912543;29;20040;-67
2022/11/13 01:43:24;;;;;;;33.20;19.88;;;4.90;99.90;;;;;;4908118;29;20050;-67
2022/11/13 01:46:21;;;;;;;36.17;20.98;;;4.90;99.90;;;;;;4906213;29;20048;-67
2022/11/13 01:49:09;;;;;;;51.88;21.40;;;4.90;99.90;;;;;;4909384;29;20051;-67
2022/11/13 01:52:01;;;;;;;40.10;20.73;;;4.90;99.90;;;;;;4912992;29;20496;-67
2022/11/13 01:54:54;;;;;;;;;;;4.80;99.90;;;;;;4908921;29;20047;-69
2022/11/13 01:57:40;;;;;;;44.83;20.73;;;4.80;99.90;;;;;;4916537;29;20034;-67
2022/11/13 02:00:26;;;;;;;55.08;21.95;;;4.70;99.90;;;;;;4915828;29;20578;-67
2022/11/13 02:03:12;;;;;;;54.88;20.45;;;4.70;99.90;;;;;;4904264;29;20044;-66
2022/11/13 02:05:58;;;;;;;38.97;20.08;;;4.70;99.90;;;;;;4909161;29;20056;-68
2022/11/13 02:08:44;;;;;;;24.02;16.30;;;4.70;99.90;;;;;;4914667;29;20051;-67
2022/11/13 02:11:30;;;;;;;24.65;16.90;;;4.60;99.90;;;;;;4914834;29;20070;-68
2022/11/13 02:14:18;;;;;;;26.85;17.25;;;4.60;99.90;;;;;;4915207;29;20131;-66
2022/11/13 02:17:08;;;;;;;30.05;19.35;;;4.70;99.90;;;;;;4911746;29;20135;-67
2022/11/13 02:19:58;;;;;;;24.23;16.67;;;4.70;99.90;;;;;;4912610;29;20055;-66
2022/11/13 02:22:54;;;;;;;24.92;16.38;;;4.70;99.90;;;;;;4914244;29;20051;-66
2022/11/13 02:25:41;;;;;;;23.42;16.90;;;4.70;99.90;;;;;;4914247;29;20063;-68
2022/11/13 02:28:27;;;;;;;20.98;15.45;;;4.60;99.90;;;;;;4910150;29;20403;-68
2022/11/13 02:31:14;;;;;;;25.50;15.80;;;4.60;99.90;;;;;;4915497;29;20515;-68
2022/11/13 02:34:02;;;;;;;22.10;14.85;;;4.50;99.90;;;;;;4913648;29;20047;-67
2022/11/13 02:36:49;;;;;;;23.35;16.52;;;4.40;99.90;;;;;;4915230;29;20047;-67
2022/11/13 02:39:35;;;;;;;22.30;15.23;;;4.30;99.90;;;;;;4915917;29;20068;-68
2022/11/13 02:42:21;;;;;;;22.30;14.98;;;4.30;99.90;;;;;;4904546;29;20538;-68
2022/11/13 02:45:07;;;;;;;24.15;16.25;;;4.20;99.90;;;;;;4914926;29;20100;-68
2022/11/13 02:47:53;;;;;;;24.83;16.02;;;4.10;99.90;;;;;;4916309;29;20524;-67
2022/11/13 02:50:39;;;;;;;24.40;16.08;;;4.00;99.90;;;;;;4907520;29;20082;-68
2022/11/13 02:53:25;;;;;;;21.83;15.35;;;4.00;99.90;;;;;;4913434;29;20048;-67
2022/11/13 02:56:10;;;;;;;25.13;16.70;;;3.90;99.90;;;;;;4913219;29;20173;-67
2022/11/13 02:58:56;;;;;;;20.02;14.90;;;3.80;99.90;;;;;;4914189;29;20429;-68
2022/11/13 03:01:42;;;;;;;21.70;15.40;;;3.70;99.90;;;;;;4915015;29;20050;-67
2022/11/13 03:04:28;;;;;;;21.65;14.95;;;3.70;99.90;;;;;;4915176;29;20055;-66
2022/11/13 03:07:34;;;;;;;23.50;14.05;;;3.60;99.90;;;;;;4913196;29;20071;-66
2022/11/13 03:10:20;;;;;;;18.95;13.45;;;3.50;99.90;;;;;;4915332;29;20119;-68
2022/11/13 03:13:06;;;;;;;20.00;14.30;;;3.40;99.90;;;;;;4904539;29;20411;-66
2022/11/13 03:15:51;;;;;;;19.75;13.43;;;3.40;99.90;;;;;;4914458;29;20111;-68
2022/11/13 03:18:38;;;;;;;17.20;12.15;;;3.40;99.90;;;;;;4907485;29;20543;-66
2022/11/13 03:21:24;;;;;;;17.15;11.65;;;3.30;99.90;;;;;;4911063;29;20534;-67
2022/11/13 03:24:09;;;;;;;15.38;10.38;;;3.20;99.90;;;;;;4913441;29;20520;-66
2022/11/13 03:26:55;;;;;;;14.93;10.43;;;3.20;99.90;;;;;;4913731;29;20063;-68
2022/11/13 03:29:41;;;;;;;13.30;9.25;;;3.10;99.90;;;;;;4912477;29;20171;-66
2022/11/13 03:32:27;;;;;;;16.27;10.73;;;3.00;99.90;;;;;;4912335;29;20387;-67
2022/11/13 03:35:12;;;;;;;15.27;9.32;;;3.00;99.90;;;;;;4912879;29;20044;-67
2022/11/13 03:37:58;;;;;;;14.05;9.75;;;3.00;99.90;;;;;;4914832;29;20055;-66
2022/11/13 03:40:44;;;;;;;14.77;9.73;;;3.00;99.90;;;;;;4908360;29;20033;-67
2022/11/13 03:43:30;;;;;;;15.88;10.55;;;2.90;99.90;;;;;;4903242;29;20076;-67
2022/11/13 03:46:16;;;;;;;17.90;10.82;;;2.80;99.90;;;;;;4912551;29;20047;-68
2022/11/13 03:49:02;;;;;;;16.00;10.32;;;2.80;99.90;;;;;;4905586;29;20058;-66
2022/11/13 03:51:48;;;;;;;14.63;9.80;;;2.80;99.90;;;;;;4913485;29;20054;-67
2022/11/13 03:54:34;;;;;;;14.90;10.20;;;2.70;99.90;;;;;;4913979;29;20123;-66
2022/11/13 03:57:20;;;;;;;17.63;11.20;;;2.70;99.90;;;;;;4913424;29;20095;-67
2022/11/13 04:00:06;;;;;;;17.30;12.00;;;2.70;99.90;;;;;;4914290;29;20123;-68
2022/11/13 04:02:52;;;;;;;22.25;14.25;;;2.70;99.90;;;;;;4905677;29;20123;-67
2022/11/13 04:05:38;;;;;;;22.17;15.10;;;2.60;99.90;;;;;;4910504;29;20569;-67
2022/11/13 04:08:24;;;;;;;22.92;15.63;;;2.60;99.90;;;;;;4913276;29;20448;-66
2022/11/13 04:11:11;;;;;;;23.45;16.02;;;2.50;99.90;;;;;;4914269;29;20559;-66
2022/11/13 04:13:57;;;;;;;23.20;16.23;;;2.40;99.90;;;;;;4913767;29;20183;-67
2022/11/13 04:16:43;;;;;;;25.35;16.80;;;2.40;99.90;;;;;;4913094;29;20176;-68
2022/11/13 04:19:29;;;;;;;26.23;17.80;;;2.30;99.90;;;;;;4912835;29;20191;-67
2022/11/13 04:22:15;;;;;;;25.80;16.13;;;2.30;99.90;;;;;;4907761;29;20524;-67
2022/11/13 04:25:01;;;;;;;22.27;16.13;;;2.20;99.90;;;;;;4912228;29;20044;-66
2022/11/13 04:27:49;;;;;;;21.65;15.18;;;2.10;99.90;;;;;;4913022;29;20080;-67
2022/11/13 04:30:34;;;;;;;23.60;15.70;;;2.00;99.90;;;;;;4913206;29;20467;-67
2022/11/13 04:33:20;;;;;;;22.80;15.68;;;1.90;99.90;;;;;;4903351;29;20115;-67
2022/11/13 04:36:06;;;;;;;28.98;17.13;;;1.80;99.90;;;;;;4913881;29;20095;-67
2022/11/13 04:38:52;;;;;;;25.80;16.35;;;1.70;99.90;;;;;;4903890;29;20462;-67
2022/11/13 04:44:43;;;;;;;22.35;15.68;;;1.60;99.90;;;;;;4913790;29;20522;-68
2022/11/13 04:47:29;;;;;;;37.05;16.13;;;1.50;99.90;;;;;;4911460;29;20067;-67
2022/11/13 04:50:16;;;;;;;23.27;14.60;;;1.40;99.90;;;;;;4912552;29;20126;-68
2022/11/13 04:53:01;;;;;;;21.98;15.40;;;1.40;99.90;;;;;;4913108;29;20098;-68
2022/11/13 04:55:47;;;;;;;21.38;14.38;;;1.30;99.90;;;;;;4905526;29;20070;-68
2022/11/13 04:58:33;;;;;;;27.80;15.25;;;1.30;99.90;;;;;;4913829;29;20040;-68
2022/11/13 05:01:19;;;;;;;22.73;15.38;;;1.30;99.90;;;;;;4913542;29;20475;-68
2022/11/13 05:04:05;;;;;;;28.45;15.85;;;1.20;99.90;;;;;;4912935;29;20535;-67
2022/11/13 05:06:51;;;;;;;25.05;14.98;;;1.10;99.90;;;;;;4913257;29;20051;-69
2022/11/13 05:09:36;;;;;;;23.88;15.25;;;1.00;99.90;;;;;;4905196;29;20040;-68
2022/11/13 05:12:22;;;;;;;29.38;16.05;;;1.10;99.90;;;;;;4910831;29;20040;-66
2022/11/13 05:15:08;;;;;;;24.13;15.57;;;1.10;99.90;;;;;;4912891;29;20108;-67
2022/11/13 05:17:54;;;;;;;22.25;16.85;;;1.10;99.90;;;;;;4913745;29;20571;-67
2022/11/13 05:20:40;;;;;;;30.02;16.75;;;1.10;99.90;;;;;;4913595;29;20447;-68
2022/11/13 05:23:26;;;;;;;22.83;15.48;;;1.10;99.90;;;;;;4913516;29;20180;-67
2022/11/13 05:26:13;;;;;;;33.65;17.67;;;1.10;99.90;;;;;;4913110;29;20415;-68
2022/11/13 05:28:59;;;;;;;24.33;16.35;;;1.20;99.90;;;;;;4916369;29;20059;-65
2022/11/13 05:31:46;;;;;;;31.65;16.90;;;1.10;99.90;;;;;;4914996;29;20059;-66
2022/11/13 05:34:31;;;;;;;35.92;17.65;;;1.10;99.90;;;;;;4910643;29;20053;-66
2022/11/13 05:37:17;;;;;;;24.98;16.00;;;1.10;99.90;;;;;;4905971;29;20047;-66
2022/11/13 05:40:04;;;;;;;28.38;15.93;;;1.10;99.90;;;;;;4913803;29;20127;-67
2022/11/13 05:42:52;;;;;;;23.20;15.13;;;1.10;99.90;;;;;;4916507;29;20048;-67
2022/11/13 05:45:38;;;;;;;20.38;14.68;;;1.00;99.90;;;;;;4915625;29;20044;-67
2022/11/13 05:48:24;;;;;;;26.20;17.27;;;1.00;99.90;;;;;;4916340;29;20040;-69
2022/11/13 05:51:16;;;;;;;26.75;16.00;;;1.00;99.90;;;;;;4915593;29;20531;-66
2022/11/13 05:54:03;;;;;;;28.17;16.33;;;1.00;99.90;;;;;;4916599;29;20443;-68
2022/11/13 05:56:49;;;;;;;22.88;15.95;;;0.90;99.90;;;;;;4914163;29;20047;-67
2022/11/13 05:59:35;;;;;;;21.10;15.02;;;0.90;99.90;;;;;;4916713;29;20051;-66
2022/11/13 06:02:21;;;;;;;19.98;14.90;;;0.90;99.90;;;;;;4916637;29;20054;-66
2022/11/13 06:05:10;;;;;;;22.13;15.05;;;0.90;99.90;;;;;;4916350;29;20047;-67
2022/11/13 06:07:56;;;;;;;21.83;14.70;;;0.90;99.90;;;;;;4912196;29;20060;-68
2022/11/13 06:10:42;;;;;;;20.77;15.30;;;0.90;99.90;;;;;;4913348;29;20038;-68
2022/11/13 06:13:28;;;;;;;47.90;27.85;;;0.80;99.90;;;;;;4915569;29;20498;-68
2022/11/13 06:16:17;;;;;;;27.48;17.20;;;0.80;99.90;;;;;;4909488;29;20514;-68
2022/11/13 06:19:06;;;;;;;20.58;14.27;;;0.80;99.90;;;;;;4912903;29;20522;-66
2022/11/13 06:21:52;;;;;;;20.73;15.45;;;0.80;99.90;;;;;;4902386;29;20053;-68
2022/11/13 06:24:38;;;;;;;37.78;16.10;;;0.70;99.90;;;;;;4913837;29;20032;-68
2022/11/13 06:27:23;;;;;;;24.30;16.35;;;0.60;99.90;;;;;;4913150;29;20176;-68
2022/11/13 06:30:10;;;;;;;24.20;15.80;;;0.50;99.90;;;;;;4906218;29;20499;-66
2022/11/13 06:32:56;;;;;;;21.60;16.00;;;0.60;99.90;;;;;;4915994;29;20052;-68
2022/11/13 06:35:42;;;;;;;30.67;16.90;;;0.60;99.90;;;;;;4915155;29;20040;-68
2022/11/13 06:38:31;;;;;;;28.67;17.17;;;0.70;99.90;;;;;;4898749;29;20051;-67
2022/11/13 06:41:20;;;;;;;27.98;17.42;;;0.80;99.90;;;;;;4911729;29;20559;-67
2022/11/13 06:44:06;;;;;;;26.48;16.35;;;0.90;99.90;;;;;;4907900;29;20051;-68
2022/11/13 06:46:51;;;;;;;27.90;15.40;;;0.90;99.90;;;;;;4913397;29;20059;-68
2022/11/13 06:49:37;;;;;;;38.45;16.17;;;1.00;99.90;;;;;;4914221;29;20511;-67
2022/11/13 06:52:22;;;;;;;28.48;15.18;;;1.00;99.90;;;;;;4907995;29;20150;-68
2022/11/13 06:55:08;;;;;;;23.27;15.50;;;1.00;99.90;;;;;;4914371;29;20051;-66
2022/11/13 06:57:54;;;;;;;29.10;16.50;;;1.10;99.90;;;;;;4915667;29;20127;-67
2022/11/13 07:00:41;;;;;;;24.15;15.32;;;1.20;99.90;;;;;;4915279;29;20076;-67
2022/11/13 07:03:27;;;;;;;47.13;16.67;;;1.30;99.90;;;;;;4915463;29;20511;-69
2022/11/13 07:06:18;;;;;;;27.02;15.25;;;1.20;99.90;;;;;;4916174;29;20043;-71
2022/11/13 07:09:04;;;;;;;28.20;16.73;;;1.20;99.90;;;;;;4915496;29;20044;-68
2022/11/13 07:11:50;;;;;;;21.88;14.70;;;1.20;99.90;;;;;;4915343;29;20353;-69
2022/11/13 07:14:36;;;;;;;32.13;15.95;;;1.30;99.90;;;;;;4915458;29;20511;-68
2022/11/13 07:17:22;;;;;;;53.80;15.73;;;1.30;99.90;;;;;;4915024;29;20042;-68
2022/11/13 07:20:08;;;;;;;19.65;14.55;;;1.30;99.90;;;;;;4914214;29;20070;-69
2022/11/13 07:22:59;;;;;;;20.15;14.68;;;1.40;99.90;;;;;;4915028;29;20048;-69
2022/11/13 07:25:45;;;;;;;25.50;13.45;;;1.50;99.90;;;;;;4915079;29;20168;-69
2022/11/13 07:28:31;;;;;;;17.70;13.50;;;1.50;99.90;;;;;;4910319;29;20044;-68
2022/11/13 07:31:17;;;;;;;19.92;13.80;;;1.50;99.90;;;;;;4914670;29;20044;-68
2022/11/13 07:34:03;;;;;;;19.60;14.15;;;1.60;99.90;;;;;;4910579;29;20049;-70
2022/11/13 07:36:49;;;;;;;18.10;12.77;;;1.60;99.90;;;;;;4912857;29;20055;-70
2022/11/13 07:39:35;;;;;;;16.45;13.02;;;1.70;99.90;;;;;;4914430;29;20036;-69
2022/11/13 07:42:21;;;;;;;15.73;12.55;;;1.70;99.90;;;;;;4914884;29;20146;-71
2022/11/13 07:45:07;;;;;;;15.90;12.90;;;1.80;99.90;;;;;;4911469;29;20650;-69
2022/11/13 07:48:03;;;;;;;16.10;13.13;;;1.80;99.90;;;;;;4910452;29;20052;-70
2022/11/13 07:50:49;;;;;;;15.90;12.57;;;1.90;99.90;;;;;;4902197;29;20047;-69
2022/11/13 07:53:37;;;;;;;16.33;12.27;;;1.90;99.90;;;;;;4913081;29;20044;-70
2022/11/13 07:56:24;;;;;;;16.13;13.32;;;2.00;99.90;;;;;;4910116;29;20056;-69
2022/11/13 07:59:10;;;;;;;15.85;13.10;;;1.90;99.90;;;;;;4903585;29;20526;-69
2022/11/13 08:01:56;;;;;;;18.27;14.25;;;2.00;99.90;;;;;;4913577;29;20069;-69
2022/11/13 08:04:42;;;;;;;18.15;13.75;;;2.10;99.90;;;;;;4912628;29;20539;-68
2022/11/13 08:07:28;;;;;;;16.58;13.45;;;2.20;99.90;;;;;;4908750;29;20490;-70
2022/11/13 08:10:15;;;;;;;19.42;13.88;;;2.20;99.90;;;;;;4909147;29;20050;-70
2022/11/13 08:13:04;;;;;;;17.42;13.45;;;2.30;99.90;;;;;;4913377;29;20143;-68
2022/11/13 08:15:49;;;;;;;18.20;13.93;;;2.50;99.90;;;;;;4911478;29;20139;-68
2022/11/13 08:18:36;;;;;;;18.17;13.50;;;2.50;99.90;;;;;;4911267;29;20115;-69
2022/11/13 08:21:22;;;;;;;17.67;13.70;;;2.60;99.90;;;;;;4914022;29;20571;-69
2022/11/13 08:24:09;;;;;;;18.83;14.23;;;2.70;99.90;;;;;;4912822;29;20044;-70
2022/11/13 08:26:55;;;;;;;17.80;13.27;;;2.70;99.90;;;;;;4912558;29;20411;-70
2022/11/13 08:29:41;;;;;;;15.07;12.85;;;2.80;99.90;;;;;;4914088;29;20518;-70
2022/11/13 08:32:26;;;;;;;16.88;13.00;;;2.90;99.90;;;;;;4913392;29;20470;-69
2022/11/13 08:35:12;;;;;;;25.80;18.75;;;3.00;99.90;;;;;;4908897;29;20519;-70
2022/11/13 08:38:06;;;;;;;21.13;15.45;;;3.00;99.90;;;;;;4908522;29;20360;-68
2022/11/13 08:40:56;;;;;;;17.77;13.68;;;3.10;99.90;;;;;;4912215;29;20158;-69
2022/11/13 08:43:41;;;;;;;17.58;14.00;;;3.20;99.90;;;;;;4912289;29;20035;-69
2022/11/13 08:46:27;;;;;;;17.58;14.18;;;3.30;99.90;;;;;;4910129;29;20044;-70
2022/11/13 08:49:13;;;;;;;24.88;15.85;;;3.30;99.90;;;;;;4905858;29;20199;-69
2022/11/13 08:51:59;;;;;;;20.63;16.25;;;3.50;99.90;;;;;;4912892;29;20047;-69
2022/11/13 08:54:45;;;;;;;22.15;16.70;;;3.60;99.90;;;;;;4913716;29;20520;-70
2022/11/13 08:57:31;;;;;;;17.77;15.45;;;3.70;99.90;;;;;;4907298;29;20060;-69
2022/11/13 09:00:19;;;;;;;17.25;13.70;;;3.80;99.90;;;;;;4908591;29;20519;-70
2022/11/13 09:03:05;;;;;;;17.50;14.00;;;3.90;99.90;;;;;;4913541;29;20450;-69
2022/11/13 09:05:51;;;;;;;18.02;13.65;;;3.90;99.90;;;;;;4912134;29;20384;-68
2022/11/13 09:08:37;;;;;;;16.17;13.55;;;4.10;99.90;;;;;;4904313;29;20152;-69
2022/11/13 09:11:26;;;;;;;15.90;13.23;;;4.20;99.90;;;;;;4909961;29;20048;-68
2022/11/13 09:14:12;;;;;;;16.65;12.60;;;4.10;99.90;;;;;;4905726;29;20069;-69
2022/11/13 09:16:58;;;;;;;16.77;13.40;;;4.10;99.90;;;;;;4912407;29;20096;-69
2022/11/13 09:19:44;;;;;;;16.67;12.75;;;4.10;99.90;;;;;;4926236;29;20051;-69
2022/11/13 09:22:30;;;;;;;15.70;12.85;;;4.10;99.90;;;;;;4911172;29;20472;-69
2022/11/13 09:25:16;;;;;;;15.07;12.00;;;4.30;99.90;;;;;;4909303;29;20056;-68
2022/11/13 09:28:03;;;;;;;15.32;12.55;;;4.30;99.90;;;;;;4904187;29;20071;-68
2022/11/13 09:30:49;;;;;;;17.02;12.38;;;4.50;99.90;;;;;;4912938;29;20070;-69
2022/11/13 09:33:35;;;;;;;16.02;13.18;;;4.60;99.90;;;;;;4908906;29;20055;-68
2022/11/13 09:36:21;;;;;;;16.92;12.73;;;4.70;99.90;;;;;;4907490;29;20172;-68
2022/11/13 09:39:07;;;;;;;19.63;13.02;;;4.90;99.90;;;;;;4912918;29;20051;-67
2022/11/13 09:41:58;;;;;;;17.30;13.43;;;5.10;99.90;;;;;;4907092;29;20546;-69
2022/11/13 09:44:51;;;;;;;16.25;12.15;;;5.30;99.90;;;;;;4907756;29;20488;-68
2022/11/13 09:47:45;;;;;;;;;;;5.50;99.90;;;;;;4900701;29;20063;-69
2022/11/13 09:50:32;;;;;;;19.60;13.23;;;5.80;99.90;;;;;;4907121;29;19946;-71
2022/11/13 09:53:18;;;;;;;16.17;12.85;;;5.90;99.90;;;;;;4911839;29;20040;-70
2022/11/13 09:56:14;;;;;;;18.27;13.43;;;6.20;99.90;;;;;;4897992;29;20135;-70
2022/11/13 09:59:19;;;;;;;16.38;12.93;;;6.40;99.90;;;;;;4912868;29;20135;-69
2022/11/13 10:02:39;;;;;;;18.58;14.63;;;6.70;99.90;;;;;;4911192;29;20171;-70
2022/11/13 10:05:43;;;;;;;18.25;13.88;;;7.10;99.90;;;;;;4911925;29;20059;-69
2022/11/13 10:08:30;;;;;;;16.60;13.50;;;7.40;99.90;;;;;;4913109;29;20125;-70
2022/11/13 10:11:43;;;;;;;15.60;13.05;;;7.60;99.90;;;;;;4912420;29;20103;-70
2022/11/13 10:14:44;;;;;;;17.38;13.07;;;7.60;99.90;;;;;;4901292;29;20111;-69
2022/11/13 10:17:43;;;;;;;16.23;13.43;;;8.00;99.90;;;;;;4912177;29;20550;-69
2022/11/13 10:20:53;;;;;;;18.05;14.02;;;8.50;99.90;;;;;;4909797;29;20120;-70
2022/11/13 10:23:39;;;;;;;16.45;13.23;;;8.80;99.90;;;;;;4902867;29;20047;-70
2022/11/13 10:26:28;;;;;;;17.60;13.55;;;9.30;99.90;;;;;;4911392;29;20056;-70
2022/11/13 10:29:19;;;;;;;17.00;12.85;;;9.70;99.90;;;;;;4913060;29;20184;-69
2022/11/13 10:32:16;;;;;;;17.67;13.05;;;10.70;99.90;;;;;;4908272;29;20102;-69
2022/11/13 10:35:05;;;;;;;20.08;15.25;;;12.60;99.90;;;;;;4913709;29;20515;-67
2022/11/13 10:37:56;;;;;;;19.42;15.13;;;13.30;99.90;;;;;;4908213;29;20048;-68
2022/11/13 10:40:48;;;;;;;18.05;14.90;;;13.40;99.90;;;;;;4910762;29;20079;-69
2022/11/13 10:43:34;;;;;;;17.10;15.30;;;13.10;99.90;;;;;;4913439;29;20043;-70
2022/11/13 10:46:23;;;;;;;16.90;14.80;;;12.70;99.90;;;;;;4908744;29;20047;-71
2022/11/13 10:49:18;;;;;;;17.48;15.43;;;13.00;99.90;;;;;;4915113;29;20491;-68
2022/11/13 10:52:25;;;;;;;19.80;16.92;;;13.20;99.90;;;;;;4915888;29;20044;-69
2022/11/13 10:55:34;;;;;;;16.38;14.63;;;13.80;99.90;;;;;;4912513;29;20056;-70
2022/11/13 10:58:20;;;;;;;19.33;16.60;;;14.20;99.90;;;;;;4915113;29;20064;-68
2022/11/13 11:01:24;;;;;;;18.17;14.65;;;14.60;99.90;;;;;;4904756;29;20048;-68
2022/11/13 11:04:20;;;;;;;16.65;14.80;;;14.90;99.90;;;;;;4915728;29;20058;-69
2022/11/13 11:07:19;;;;;;;15.77;14.23;;;15.10;99.90;;;;;;4913984;29;20052;-67
2022/11/13 11:10:29;;;;;;;16.33;14.63;;;15.40;99.90;;;;;;4922312;29;20048;-68
2022/11/13 11:13:23;;;;;;;16.48;14.68;;;15.50;99.90;;;;;;4902237;29;20176;-68
2022/11/13 11:16:17;;;;;;;31.77;25.80;;;15.40;99.90;;;;;;4893488;29;20047;-69
2022/11/13 11:19:09;;;;;;;16.83;15.13;;;16.20;99.90;;;;;;4911286;29;20469;-69
2022/11/13 11:22:14;;;;;;;16.60;14.98;;;16.20;99.90;;;;;;4907542;29;20501;-68
2022/11/13 11:25:23;;;;;;;20.13;18.02;;;16.70;99.90;;;;;;4915354;29;20056;-69
2022/11/13 11:28:32;;;;;;;17.20;15.40;;;17.20;99.90;;;;;;4904904;29;20197;-70
2022/11/13 11:31:29;;;;;;;16.15;14.45;;;17.40;99.90;;;;;;4907550;29;20039;-68
2022/11/13 11:34:35;;;;;;;17.13;14.48;;;17.70;99.90;;;;;;4912114;29;20051;-68
2022/11/13 11:37:31;;;;;;;15.98;14.38;;;18.10;99.90;;;;;;4914337;29;20060;-67
2022/11/13 11:40:41;;;;;;;16.45;14.75;;;18.70;99.90;;;;;;4914611;29;20060;-69
2022/11/13 11:43:43;;;;;;;17.58;15.88;;;19.10;99.90;;;;;;4912840;29;21596;-69
2022/11/13 11:46:29;;;;;;;16.20;14.60;;;19.60;99.90;;;;;;4908784;29;20453;-69
2022/11/13 11:49:15;;;;;;;16.35;14.85;;;20.10;99.90;;;;;;4908314;29;20044;-67
2022/11/13 11:52:25;;;;;;;16.15;14.45;;;20.00;99.90;;;;;;4913579;29;20051;-68
2022/11/13 11:55:28;;;;;;;16.00;14.35;;;20.10;99.90;;;;;;4912375;29;20522;-68
2022/11/13 11:58:33;;;;;;;15.23;13.65;;;20.30;99.90;;;;;;4914515;29;20051;-68
2022/11/13 12:01:36;;;;;;;14.93;13.43;;;20.60;99.90;;;;;;4915525;29;20059;-69
2022/11/13 12:04:33;;;;;;;14.80;13.30;;;20.60;99.90;;;;;;4907899;29;20075;-70
2022/11/13 12:07:45;;;;;;;14.50;13.10;;;21.00;99.90;;;;;;4911602;29;20188;-70
2022/11/13 12:10:35;;;;;;;13.75;12.48;;;20.90;99.90;;;;;;4913765;29;20494;-69
2022/11/13 12:13:35;;;;;;;14.45;13.05;;;21.20;99.90;;;;;;4913995;29;20047;-69
2022/11/13 12:16:44;;;;;;;14.63;13.10;;;21.30;99.90;;;;;;4908617;29;20163;-70
2022/11/13 12:19:52;;;;;;;14.20;12.70;;;21.70;99.90;;;;;;4912616;29;20047;-69
2022/11/13 12:23:04;;;;;;;12.05;9.80;;;22.20;99.90;;;;;;4913111;29;20507;-70
2022/11/13 12:26:01;;;;;;;12.05;10.55;;;22.40;99.90;;;;;;4910110;29;20119;-70
2022/11/13 12:29:09;;;;;;;10.35;8.30;;;22.70;99.90;;;;;;4913423;29;20051;-69
2022/11/13 12:32:11;;;;;;;7.93;6.85;;;23.30;99.90;;;;;;4913829;29;20104;-70
2022/11/13 12:35:08;;;;;;;8.15;7.25;;;23.80;98.60;;;;;;4909070;29;20130;-69
2022/11/13 12:38:21;;;;;;;7.95;7.15;;;24.40;97.00;;;;;;4914049;29;20059;-69
2022/11/13 12:41:34;;;;;;;7.68;6.93;;;24.40;96.10;;;;;;4906090;29;20055;-69
2022/11/13 12:44:23;;;;;;;7.15;6.45;;;24.60;94.50;;;;;;4912668;29;20051;-70
2022/11/13 12:47:10;;;;;;;7.15;6.32;;;24.70;93.80;;;;;;4912565;29;20507;-69
2022/11/13 12:50:27;;;;;;;6.72;5.97;;;25.10;93.10;;;;;;4912626;29;20047;-69
2022/11/13 12:53:28;;;;;;;6.75;6.10;;;25.10;92.40;;;;;;4895089;29;20058;-70
2022/11/13 12:56:30;;;;;;;7.20;6.60;;;25.50;92.00;;;;;;4913820;29;20052;-70
2022/11/13 12:59:16;;;;;;;7.25;6.55;;;25.80;90.80;;;;;;4913811;29;20047;-70
2022/11/13 13:02:48;;;;;;;7.93;6.78;;;25.60;89.70;;;;;;4910221;29;20627;-70
2022/11/13 13:05:57;;;;;;;7.05;6.35;;;26.00;89.10;;;;;;4910424;29;20040;-70
2022/11/13 13:09:22;;;;;;;7.30;6.60;;;26.40;87.50;;;;;;4913145;29;20519;-70
2022/11/13 13:12:35;;;;;;;9.40;6.50;;;26.10;87.00;;;;;;4907850;29;20059;-70
2022/11/13 13:15:38;;;;;;;7.05;6.30;;;26.30;86.60;;;;;;4910162;29;20147;-70
2022/11/13 13:18:25;;;;;;;8.43;7.00;;;26.30;85.20;;;;;;4899132;29;20073;-70
2022/11/13 13:21:14;;;;;;;6.97;6.32;;;26.10;84.80;;;;;;4908734;29;20452;-70
2022/11/13 13:24:25;;;;;;;7.68;6.22;;;25.80;84.80;;;;;;4906333;29;20055;-71
2022/11/13 13:27:24;;;;;;;6.68;6.07;;;25.50;85.00;;;;;;4891521;29;20107;-69
2022/11/13 13:30:26;;;;;;;7.47;6.78;;;25.70;85.20;;;;;;4903234;29;20044;-69
2022/11/13 13:33:37;;;;;;;8.88;6.80;;;26.60;84.00;;;;;;4910116;29;20040;-72
2022/11/13 13:36:29;;;;;;;6.95;6.25;;;28.10;82.00;;;;;;4911985;29;20383;-69
2022/11/13 13:39:24;;;;;;;7.82;7.03;;;29.50;77.50;;;;;;4912857;29;20100;-69
2022/11/13 13:42:39;;;;;;;7.22;5.90;;;30.40;75.60;;;;;;4908591;29;20561;-70
2022/11/13 13:45:41;;;;;;;7.45;5.95;;;30.20;73.80;;;;;;4909174;29;20040;-70
2022/11/13 13:48:30;;;;;;;8.23;7.43;;;30.70;71.60;;;;;;4912738;29;20043;-70
2022/11/13 13:51:27;;;;;;;6.82;6.18;;;31.20;71.10;;;;;;4918600;29;20500;-70
2022/11/13 13:54:19;;;;;;;10.15;9.15;;;31.40;70.00;;;;;;4907096;29;20050;-69
2022/11/13 13:57:13;;;;;;;9.85;7.68;;;31.40;69.80;;;;;;4915710;29;20036;-69
2022/11/13 14:00:00;;;;;;;8.52;7.60;;;31.60;68.00;;;;;;4916649;29;20056;-69
2022/11/13 14:02:47;;;;;;;8.15;7.35;;;31.30;68.20;;;;;;4904515;29;20085;-69
2022/11/13 14:05:35;;;;;;;7.65;6.88;;;31.10;67.50;;;;;;4915294;29;20532;-69
2022/11/13 14:08:24;;;;;;;7.57;6.82;;;31.00;67.70;;;;;;4908013;29;20071;-69
2022/11/13 14:11:28;;;;;;;7.82;7.13;;;31.00;66.90;;;;;;4914097;29;20478;-69
2022/11/13 14:14:20;;;;;;;8.48;7.28;;;30.70;67.00;;;;;;4915683;29;20039;-69
2022/11/13 14:17:09;;;;;;;8.85;7.95;;;30.90;66.60;;;;;;4916807;29;20561;-69
2022/11/13 14:19:59;;;;;;;9.40;7.72;;;30.60;66.40;;;;;;4916852;29;20048;-69
2022/11/13 14:22:50;;;;;;;7.88;7.13;;;30.40;66.90;;;;;;4902561;29;20063;-69
2022/11/13 14:25:44;;;;;;;7.97;7.18;;;30.60;66.90;;;;;;4915546;29;20527;-69
2022/11/13 14:28:43;;;;;;;7.95;7.15;;;30.40;66.30;;;;;;4910029;29;20055;-69
2022/11/13 14:31:34;;;;;;;8.23;6.72;;;30.00;66.20;;;;;;4904996;29;20440;-70
2022/11/13 14:34:22;;;;;;;7.65;6.85;;;29.90;67.50;;;;;;4916143;29;20050;-68
2022/11/13 14:37:26;;;;;;;7.45;6.70;;;29.40;67.20;;;;;;4916318;29;20687;-69
2022/11/13 14:40:45;;;;;;;7.40;6.68;;;29.00;67.20;;;;;;4914961;29;20127;-69
2022/11/13 14:43:32;;;;;;;7.65;6.85;;;28.50;68.30;;;;;;4914575;29;20056;-69